Time;durP1;ratioP1;P1;durP2;ratioP2;P2;SDS_P1;SDS_P2;PMS_P1;PMS_P2;Temp;Humidity;BMP_temperature;BMP_pressure;BME280_temperature;BME280_humidity;BME280_pressure;Samples;Min_cycle;Max_cycle;Signal;HPM_P1;HPM_P2
2023/05/24 00:01:24;;;;;;;4.03;3.73;;;;;;;11.77;100.00;97080.69;5017442;28;20218;-67
2023/05/24 00:03:52;;;;;;;4.30;3.90;;;;;;;11.85;100.00;97093.81;5034948;28;20233;-67
2023/05/24 00:06:20;;;;;;;4.67;4.10;;;;;;;11.68;100.00;97095.13;5048247;28;20556;-69
2023/05/24 00:08:49;;;;;;;3.83;3.63;;;;;;;11.68;100.00;97095.13;5004174;28;20676;-67
2023/05/24 00:11:17;;;;;;;4.33;4.03;;;;;;;11.72;100.00;97088.41;5035092;28;20481;-68
2023/05/24 00:13:45;;;;;;;4.13;3.93;;;;;;;11.67;100.00;97096.16;5043666;28;20388;-69
2023/05/24 00:16:16;;;;;;;5.73;3.57;;;;;;;11.62;100.00;97103.88;5038823;28;20195;-68
2023/05/24 00:18:45;;;;;;;4.33;3.90;;;;;;;11.56;100.00;97103.63;5015113;28;20669;-67
2023/05/24 00:21:14;;;;;;;3.77;3.47;;;;;;;11.37;100.00;97083.03;5049856;28;20731;-69
2023/05/24 00:23:42;;;;;;;9.37;4.10;;;;;;;11.38;100.00;97103.25;5020435;28;20311;-70
2023/05/24 00:26:12;;;;;;;5.17;3.93;;;;;;;11.36;100.00;97103.44;5016469;28;20752;-68
2023/05/24 00:28:39;;;;;;;5.53;4.47;;;;;;;11.31;100.00;97108.50;5047397;28;20596;-68
2023/05/24 00:31:08;;;;;;;6.50;3.63;;;;;;;11.39;100.00;97111.03;5046242;28;20300;-67
2023/05/24 00:33:35;;;;;;;4.07;3.70;;;;;;;11.28;100.00;97106.22;4986378;28;20573;-69
2023/05/24 00:36:03;;;;;;;4.00;3.70;;;;;;;11.31;100.00;97116.44;5039916;28;20234;-67
2023/05/24 00:38:31;;;;;;;4.50;4.10;;;;;;;11.23;100.00;97121.88;5019551;28;20198;-67
2023/05/24 00:41:00;;;;;;;4.47;4.10;;;;;;;11.16;100.00;97119.16;5021194;28;21417;-68
2023/05/24 00:43:29;;;;;;;6.17;4.60;;;;;;;11.06;100.00;97106.25;5047637;28;20237;-67
2023/05/24 00:46:14;;;;;;;6.07;4.20;;;;;;;11.00;100.00;97112.31;5038736;28;20207;-68
2023/05/24 00:48:42;;;;;;;4.90;4.40;;;;;;;11.00;100.00;97112.31;4988316;28;20869;-67
2023/05/24 00:51:10;;;;;;;5.67;4.40;;;;;;;11.02;100.00;97109.44;5045351;28;20257;-67
2023/05/24 00:53:38;;;;;;;5.57;4.87;;;;;;;10.98;100.00;97115.13;5017197;28;20788;-66
2023/05/24 00:56:07;;;;;;;5.53;4.70;;;;;;;10.96;100.00;97118.97;5013314;28;20341;-68
2023/05/24 00:58:36;;;;;;;4.70;4.30;;;;;;;11.05;100.00;97123.16;5047274;28;20716;-67
2023/05/24 01:01:04;;;;;;;6.03;4.77;;;;;;;11.00;100.00;97117.59;5043605;28;20225;-67
2023/05/24 01:03:32;;;;;;;5.37;4.00;;;;;;;10.95;100.00;97118.16;4988774;28;20511;-67
2023/05/24 01:06:02;;;;;;;5.83;3.97;;;;;;;10.84;100.00;97110.72;5042242;28;20210;-68
2023/05/24 01:08:42;;;;;;;5.03;4.60;;;;;;;10.75;100.00;97085.31;5031452;28;20230;-67
2023/05/24 01:11:18;;;;;;;3.87;3.57;;;;;;;10.90;100.00;97122.38;5016875;28;20241;-68
2023/05/24 01:13:53;;;;;;;4.40;3.90;;;;;;;10.75;100.00;97094.09;5031696;28;20413;-70
2023/05/24 01:16:24;;;;;;;4.37;4.00;;;;;;;10.93;100.00;97112.22;5040406;28;20363;-67
2023/05/24 01:18:55;;;;;;;4.30;3.90;;;;;;;10.82;100.00;97102.94;5034501;28;20721;-68
2023/05/24 01:21:38;;;;;;;4.70;4.20;;;;;;;10.90;100.00;97102.00;4994800;28;20276;-67
2023/05/24 01:24:14;;;;;;;4.90;4.40;;;;;;;10.73;100.00;97103.22;5040628;28;20242;-67
2023/05/24 01:26:56;;;;;;;4.93;4.50;;;;;;;10.61;100.00;97101.06;5024122;28;20437;-67
2023/05/24 01:29:24;;;;;;;5.77;4.70;;;;;;;10.56;100.00;97095.50;5027176;28;20299;-68
2023/05/24 01:31:52;;;;;;;4.97;4.53;;;;;;;10.71;100.00;97108.72;5040977;28;20330;-67
2023/05/24 01:34:20;;;;;;;5.53;4.70;;;;;;;10.70;100.00;97113.19;5042053;28;20290;-67
2023/05/24 01:36:48;;;;;;;6.13;4.53;;;;;;;10.60;100.00;97112.66;4988609;28;20311;-66
2023/05/24 01:39:15;;;;;;;4.40;4.00;;;;;;;10.54;100.00;97103.63;5041647;28;20293;-68
2023/05/24 01:41:49;;;;;;;5.17;4.77;;;;;;;10.54;100.00;97111.56;5011499;28;20633;-68
2023/05/24 01:44:25;;;;;;;8.10;4.70;;;;;;;10.48;100.00;97104.38;5028717;28;20716;-68
2023/05/24 01:46:59;;;;;;;8.87;5.23;;;;;;;10.47;100.00;97101.94;5049987;28;20210;-67
2023/05/24 01:49:31;;;;;;;6.70;4.80;;;;;;;10.44;100.00;97105.75;5043026;28;20288;-68
2023/05/24 01:52:02;;;;;;;4.43;3.90;;;;;;;10.41;100.00;97098.97;4988431;28;20333;-68
2023/05/24 01:54:33;;;;;;;5.33;4.80;;;;;;;10.46;100.00;97095.00;5032097;28;20210;-68
2023/05/24 01:57:05;;;;;;;5.50;4.80;;;;;;;10.41;100.00;97091.03;5010962;28;20561;-68
2023/05/24 01:59:35;;;;;;;9.07;5.20;;;;;;;10.41;100.00;97095.53;5020486;28;20472;-67
2023/05/24 02:02:02;;;;;;;5.13;4.63;;;;;;;10.41;100.00;97096.34;5037243;28;20288;-67
2023/05/24 02:04:30;;;;;;;5.70;4.50;;;;;;;10.37;100.00;97094.22;5013468;28;20222;-67
2023/05/24 02:06:58;;;;;;;7.77;5.17;;;;;;;10.07;100.00;97058.03;4994201;28;20773;-67
2023/05/24 02:09:26;;;;;;;6.73;4.70;;;;;;;10.25;100.00;97099.16;5038249;28;20603;-67
2023/05/24 02:11:54;;;;;;;6.13;4.73;;;;;;;10.19;100.00;97095.41;5022880;28;20234;-67
2023/05/24 02:14:23;;;;;;;7.30;4.73;;;;;;;10.17;100.00;97091.31;5044102;28;20506;-67
2023/05/24 02:16:57;;;;;;;7.27;5.30;;;;;;;10.11;100.00;97096.34;5036494;28;20202;-67
2023/05/24 02:19:25;;;;;;;6.30;5.13;;;;;;;10.16;100.00;97094.97;5038099;28;20381;-69
2023/05/24 02:21:53;;;;;;;6.60;4.93;;;;;;;10.06;100.00;97093.44;5042154;28;20463;-68
2023/05/24 02:24:21;;;;;;;7.20;5.10;;;;;;;10.06;100.00;97101.38;4983727;28;20899;-68
2023/05/24 02:26:48;;;;;;;5.53;4.30;;;;;;;9.85;100.00;97073.00;5013019;28;20215;-68
2023/05/24 02:29:16;;;;;;;6.63;5.07;;;;;;;10.00;100.00;97102.09;5034265;28;20826;-68
2023/05/24 02:31:44;;;;;;;4.93;4.53;;;;;;;10.02;100.00;97099.28;5043165;28;20229;-68
2023/05/24 02:34:13;;;;;;;5.53;4.90;;;;;;;10.09;100.00;97105.47;5017479;28;20213;-68
2023/05/24 02:36:41;;;;;;;8.20;5.10;;;;;;;10.08;100.00;97109.13;5043165;28;20648;-67
2023/05/24 02:39:09;;;;;;;7.93;4.97;;;;;;;10.10;100.00;97110.59;4987219;28;20577;-68
2023/05/24 02:41:37;;;;;;;7.57;5.60;;;;;;;10.08;100.00;97112.59;5023865;28;20253;-67
2023/05/24 02:44:05;;;;;;;6.33;4.80;;;;;;;9.99;100.00;97106.56;5026559;28;21434;-67
2023/05/24 02:46:33;;;;;;;9.07;5.27;;;;;;;10.00;100.00;97102.09;5048512;28;20287;-65
2023/05/24 02:49:01;;;;;;;6.27;5.07;;;;;;;10.03;100.00;97111.50;5048972;28;20199;-67
2023/05/24 02:51:31;;;;;;;6.20;5.10;;;;;;;10.05;100.00;97110.31;5015756;28;20753;-68
2023/05/24 02:53:59;;;;;;;6.67;5.27;;;;;;;10.05;100.00;97112.97;4990747;28;20222;-67
2023/05/24 02:56:28;;;;;;;6.23;4.80;;;;;;;10.08;100.00;97106.47;5015439;28;20817;-68
2023/05/24 02:58:55;;;;;;;6.00;4.80;;;;;;;10.00;100.00;97104.72;5002585;28;20222;-67
2023/05/24 03:01:23;;;;;;;7.30;5.20;;;;;;;9.87;100.00;97076.28;5044409;28;20412;-65
2023/05/24 03:03:51;;;;;;;4.33;4.03;;;;;;;10.01;100.00;97105.56;5045795;28;20385;-66
2023/05/24 03:06:19;;;;;;;9.17;5.07;;;;;;;9.91;100.00;97087.31;5041028;28;20389;-66
2023/05/24 03:08:49;;;;;;;6.50;5.60;;;;;;;10.02;100.00;97112.50;5044725;28;20444;-67
2023/05/24 03:11:20;;;;;;;6.13;5.53;;;;;;;9.97;100.00;97113.88;4992537;28;21157;-67
2023/05/24 03:13:48;;;;;;;6.50;5.40;;;;;;;10.00;100.00;97117.97;4991042;28;20325;-67
2023/05/24 03:16:17;;;;;;;10.77;5.10;;;;;;;9.98;100.00;97123.47;5026493;28;20284;-66
2023/05/24 03:18:45;;;;;;;6.07;4.97;;;;;;;9.91;100.00;97130.47;5004494;28;20251;-69
2023/05/24 03:21:12;;;;;;;5.83;5.27;;;;;;;9.94;100.00;97126.63;5046401;28;20194;-69
2023/05/24 03:23:40;;;;;;;11.57;5.07;;;;;;;9.95;100.00;97129.13;5044679;28;20478;-69
2023/05/24 03:26:11;;;;;;;7.30;5.13;;;;;;;10.02;100.00;97129.19;4984457;28;20831;-69
2023/05/24 03:28:40;;;;;;;5.93;5.30;;;;;;;9.97;100.00;97131.56;5044007;28;20297;-68
2023/05/24 03:31:08;;;;;;;6.10;5.10;;;;;;;10.02;100.00;97126.53;5000803;28;20206;-69
2023/05/24 03:33:36;;;;;;;8.03;5.80;;;;;;;10.08;100.00;97128.50;5050537;28;20219;-68
2023/05/24 03:36:04;;;;;;;8.67;4.90;;;;;;;10.06;100.00;97127.84;5051772;28;20525;-70
2023/05/24 03:38:32;;;;;;;6.63;5.03;;;;;;;10.01;100.00;97132.03;5041511;28;20447;-66
2023/05/24 03:41:00;;;;;;;8.77;4.50;;;;;;;10.11;100.00;97124.63;4989510;28;20206;-67
2023/05/24 03:43:29;;;;;;;7.30;5.03;;;;;;;10.07;100.00;97137.44;5048531;28;20756;-69
2023/05/24 03:45:57;;;;;;;6.67;5.27;;;;;;;10.08;100.00;97141.72;5024415;28;20316;-69
2023/05/24 03:48:25;;;;;;;9.27;5.17;;;;;;;9.93;100.00;97133.78;5027226;28;20203;-69
2023/05/24 03:50:53;;;;;;;5.17;4.77;;;;;;;10.05;100.00;97126.22;5047722;28;20271;-71
2023/05/24 03:53:21;;;;;;;5.33;4.87;;;;;;;9.86;100.00;97095.81;5045866;28;20337;-68
2023/05/24 03:55:50;;;;;;;6.93;5.67;;;;;;;10.10;100.00;97120.34;4992616;28;20413;-69
2023/05/24 03:58:18;;;;;;;7.50;5.60;;;;;;;10.09;100.00;97114.25;5053709;28;20211;-68
2023/05/24 04:00:47;;;;;;;6.97;5.10;;;;;;;10.14;100.00;97127.75;5023020;28;20217;-66
2023/05/24 04:03:15;;;;;;;7.37;5.17;;;;;;;10.19;100.00;97126.38;5031894;28;20233;-68
2023/05/24 04:05:43;;;;;;;6.40;5.57;;;;;;;10.20;100.00;97131.47;5053554;28;20646;-68
2023/05/24 04:08:11;;;;;;;7.80;5.67;;;;;;;10.23;100.00;97133.78;5045181;28;21832;-69
2023/05/24 04:10:38;;;;;;;6.50;5.47;;;;;;;10.27;100.00;97121.00;5015726;28;20503;-68
2023/05/24 04:13:06;;;;;;;5.43;4.87;;;;;;;10.33;100.00;97130.84;4996900;28;20229;-69
2023/05/24 04:15:34;;;;;;;6.83;5.63;;;;;;;10.40;100.00;97134.41;5047874;28;20205;-69
2023/05/24 04:18:04;;;;;;;8.77;5.70;;;;;;;10.38;100.00;97130.31;5002227;28;20221;-70
2023/05/24 04:20:32;;;;;;;9.07;5.57;;;;;;;10.42;100.00;97121.00;5045329;28;20207;-69
2023/05/24 04:23:00;;;;;;;6.17;5.57;;;;;;;10.40;100.00;97123.81;5043773;28;20218;-69
2023/05/24 04:25:28;;;;;;;6.50;5.43;;;;;;;10.46;100.00;97116.19;5039573;28;20576;-69
2023/05/24 04:27:56;;;;;;;9.53;5.60;;;;;;;10.50;100.00;97123.56;4993527;28;20206;-68
2023/05/24 04:30:23;;;;;;;7.77;5.93;;;;;;;10.43;100.00;97125.31;5046761;28;20343;-69
2023/05/24 04:32:52;;;;;;;9.07;6.03;;;;;;;10.52;100.00;97121.53;5027152;28;21102;-68
2023/05/24 04:35:21;;;;;;;8.57;5.87;;;;;;;10.61;100.00;97124.09;5052156;28;20271;-68
2023/05/24 04:37:49;;;;;;;6.33;5.77;;;;;;;10.63;100.00;97127.38;5028274;28;20272;-69
2023/05/24 04:40:19;;;;;;;6.73;5.07;;;;;;;10.70;100.00;97123.78;5045470;28;20588;-69
2023/05/24 04:42:47;;;;;;;10.87;6.67;;;;;;;10.62;100.00;97125.75;4998663;28;20226;-67
2023/05/24 04:45:15;;;;;;;10.77;6.50;;;;;;;10.69;100.00;97127.44;5034982;28;20567;-68
2023/05/24 04:47:43;;;;;;;8.53;7.07;;;;;;;10.73;100.00;97127.06;5049107;28;20760;-67
2023/05/24 04:50:11;;;;;;;8.53;7.40;;;;;;;10.78;100.00;97129.97;5023572;28;20210;-68
2023/05/24 04:52:40;;;;;;;13.43;7.20;;;;;;;10.62;100.00;97128.41;5048354;28;20230;-68
2023/05/24 04:55:08;;;;;;;10.70;7.03;;;;;;;10.68;100.00;97125.81;5042816;28;20577;-69
2023/05/24 04:57:36;;;;;;;16.67;7.07;;;;;;;10.65;100.00;97120.06;4998654;28;20419;-68
2023/05/24 05:00:06;;;;;;;12.07;7.43;;;;;;;10.83;100.00;97128.44;5048712;28;20775;-68
2023/05/24 05:02:34;;;;;;;9.67;7.80;;;;;;;10.82;100.00;97133.94;5050352;28;20218;-67
2023/05/24 05:05:02;;;;;;;11.07;6.97;;;;;;;10.83;100.00;97138.22;5021393;28;20226;-70
2023/05/24 05:07:29;;;;;;;9.33;8.00;;;;;;;10.77;100.00;97133.63;5044155;28;20230;-70
2023/05/24 05:09:58;;;;;;;10.93;6.93;;;;;;;10.86;100.00;97141.31;5043085;28;20293;-69
2023/05/24 05:12:26;;;;;;;14.60;7.00;;;;;;;10.82;100.00;97141.88;4991225;28;21651;-68
2023/05/24 05:14:54;;;;;;;9.63;6.50;;;;;;;10.81;100.00;97145.53;5052503;28;20217;-67
2023/05/24 05:17:22;;;;;;;15.30;7.40;;;;;;;10.91;100.00;97137.25;5047265;28;20239;-67
2023/05/24 05:19:50;;;;;;;8.77;6.70;;;;;;;11.00;100.00;97138.81;5046567;28;20666;-68
2023/05/24 05:22:18;;;;;;;9.60;6.47;;;;;;;10.96;100.00;97143.66;5022587;28;20260;-68
2023/05/24 05:24:46;;;;;;;14.67;6.90;;;;;;;11.04;100.00;97142.72;5047118;28;20289;-67
2023/05/24 05:27:15;;;;;;;8.93;6.07;;;;;;;11.11;100.00;97132.16;5013490;28;20907;-68
2023/05/24 05:29:43;;;;;;;9.83;5.90;;;;;;;10.95;100.00;97142.00;5036204;28;20614;-68
2023/05/24 05:32:11;;;;;;;9.43;5.93;;;;;;;10.97;100.00;97132.03;5045990;28;20709;-67
2023/05/24 05:34:39;;;;;;;8.80;5.87;;;;;;;10.99;100.00;97139.81;5041023;28;20237;-68
2023/05/24 05:37:07;;;;;;;12.53;6.00;;;;;;;10.92;100.00;97136.25;5021878;28;20214;-67
2023/05/24 05:39:35;;;;;;;9.23;5.50;;;;;;;10.89;100.00;97128.69;5043454;28;20247;-68
2023/05/24 05:42:03;;;;;;;8.50;6.03;;;;;;;11.01;100.00;97135.16;5046122;28;20453;-68
2023/05/24 05:44:32;;;;;;;10.57;5.27;;;;;;;10.99;100.00;97134.53;4995918;28;20905;-68
2023/05/24 05:46:59;;;;;;;11.03;6.13;;;;;;;10.80;100.00;97102.31;5050662;28;20361;-67
2023/05/24 05:49:27;;;;;;;9.93;6.17;;;;;;;11.09;100.00;97131.53;5046834;28;20205;-67
2023/05/24 05:51:55;;;;;;;10.53;5.47;;;;;;;11.03;100.00;97134.94;5041063;28;20316;-68
2023/05/24 05:54:23;;;;;;;8.17;5.40;;;;;;;11.10;100.00;97138.47;5020448;28;22338;-68
2023/05/24 05:56:51;;;;;;;8.37;4.83;;;;;;;11.04;100.00;97133.94;5047408;28;20567;-67
2023/05/24 05:59:19;;;;;;;7.23;5.37;;;;;;;11.00;100.00;97142.28;5001847;28;20247;-68
2023/05/24 06:01:48;;;;;;;9.30;4.80;;;;;;;10.98;100.00;97141.63;5051860;28;20217;-67
2023/05/24 06:04:16;;;;;;;8.27;4.83;;;;;;;11.13;100.00;97144.25;5039686;28;20333;-67
2023/05/24 06:06:48;;;;;;;9.10;4.40;;;;;;;11.36;100.00;97134.47;5052991;28;20938;-66
2023/05/24 06:09:16;;;;;;;8.67;4.77;;;;;;;11.50;100.00;97136.22;5017236;28;21072;-68
2023/05/24 06:11:44;;;;;;;7.97;4.40;;;;;;;11.42;100.00;97142.50;5055285;28;20306;-66
2023/05/24 06:14:18;;;;;;;8.10;4.60;;;;;;;11.61;100.00;97126.91;5023886;28;20238;-68
2023/05/24 06:16:46;;;;;;;6.37;4.30;;;;;;;11.66;100.00;97142.28;5048226;28;20222;-68
2023/05/24 06:19:17;;;;;;;11.80;4.90;;;;;;;11.56;100.00;97143.44;5043420;28;20260;-68
2023/05/24 06:21:46;;;;;;;7.67;5.03;;;;;;;11.70;100.00;97138.22;5052381;28;20241;-70
2023/05/24 06:24:19;;;;;;;5.77;4.80;;;;;;;11.56;100.00;97147.91;5020528;28;20218;-68
2023/05/24 06:26:47;;;;;;;5.70;4.30;;;;;;;11.64;100.00;97137.13;5052030;28;20218;-68
2023/05/24 06:29:15;;;;;;;8.57;4.87;;;;;;;11.79;100.00;97144.22;5013987;28;20202;-68
2023/05/24 06:31:43;;;;;;;7.33;4.77;;;;;;;11.69;100.00;97152.50;5043580;28;20644;-68
2023/05/24 06:34:11;;;;;;;11.03;4.90;;;;;;;11.61;100.00;97147.34;5046451;28;20728;-68
2023/05/24 06:36:41;;;;;;;10.23;4.97;;;;;;;11.52;100.00;97147.44;5051892;28;20897;-68
2023/05/24 06:39:10;;;;;;;9.23;5.13;;;;;;;11.52;100.00;97136.84;5021364;28;20218;-68
2023/05/24 06:41:37;;;;;;;7.23;4.63;;;;;;;11.42;100.00;97152.25;5051887;28;20851;-68
2023/05/24 06:44:05;;;;;;;7.73;5.00;;;;;;;11.37;100.00;97154.66;5052318;28;20211;-68
2023/05/24 06:46:34;;;;;;;8.37;4.87;;;;;;;11.60;100.00;97153.66;4997210;28;20260;-69
2023/05/24 06:49:01;;;;;;;8.03;5.20;;;;;;;11.66;100.00;97166.16;5050229;28;20210;-69
2023/05/24 06:51:32;;;;;;;7.33;4.57;;;;;;;11.71;100.00;97161.91;5027773;28;20606;-68
2023/05/24 06:54:01;;;;;;;9.27;4.70;;;;;;;11.54;100.00;97157.88;5045577;28;20677;-67
2023/05/24 06:56:29;;;;;;;6.43;4.60;;;;;;;11.58;100.00;97167.94;5029107;28;20306;-68
2023/05/24 06:58:58;;;;;;;9.23;5.27;;;;;;;11.76;100.00;97164.00;5054977;28;20431;-68
2023/05/24 07:01:26;;;;;;;8.27;5.33;;;;;;;11.77;100.00;97167.47;4998688;28;20229;-67
2023/05/24 07:03:54;;;;;;;8.37;4.33;;;;;;;11.90;100.00;97174.69;5046506;28;20211;-68
2023/05/24 07:06:21;;;;;;;7.30;4.27;;;;;;;12.04;100.00;97183.63;5024222;28;20233;-68
2023/05/24 07:08:49;;;;;;;8.40;4.80;;;;;;;12.09;100.00;97181.19;5051024;28;20669;-67
2023/05/24 07:11:18;;;;;;;10.23;5.07;;;;;;;12.08;100.00;97183.06;5024073;28;20294;-67
2023/05/24 07:13:46;;;;;;;8.97;5.53;;;;;;;12.06;100.00;97182.44;5046790;28;20587;-68
2023/05/24 07:16:14;;;;;;;8.50;4.80;;;;;;;12.00;100.00;97167.25;5015447;28;20906;-67
2023/05/24 07:18:42;;;;;;;8.23;5.77;;;;;;;12.37;100.00;97180.38;5038788;28;20224;-67
2023/05/24 07:21:10;;;;;;;12.27;5.30;;;;;;;12.43;100.00;97187.53;5039204;28;20348;-67
2023/05/24 07:23:38;;;;;;;9.00;5.30;;;;;;;12.21;100.00;97189.47;5039267;28;20418;-66
2023/05/24 07:26:06;;;;;;;7.80;5.07;;;;;;;11.88;100.00;97194.28;5023056;28;20213;-67
2023/05/24 07:28:36;;;;;;;6.87;4.70;;;;;;;11.79;100.00;97197.31;5052271;28;20211;-66
2023/05/24 07:31:04;;;;;;;12.30;4.63;;;;;;;11.91;100.00;97198.41;5047026;28;20214;-68
2023/05/24 07:33:32;;;;;;;9.73;4.37;;;;;;;12.00;100.00;97201.75;4996983;28;20576;-69
2023/05/24 07:36:00;;;;;;;8.73;5.20;;;;;;;12.30;100.00;97197.09;5049226;28;20214;-67
2023/05/24 07:38:29;;;;;;;8.57;4.70;;;;;;;12.30;100.00;97204.22;5028542;28;20501;-69
2023/05/24 07:40:59;;;;;;;10.47;5.63;;;;;;;12.23;100.00;97200.72;5047382;28;20573;-68
2023/05/24 07:43:27;;;;;;;7.23;4.63;;;;;;;12.23;100.00;97206.84;5030122;28;20207;-69
2023/05/24 07:45:56;;;;;;;9.40;5.37;;;;;;;11.99;100.00;97200.94;5055078;28;20605;-68
2023/05/24 07:48:24;;;;;;;10.27;5.23;;;;;;;12.17;100.00;97204.97;4992126;28;20364;-68
2023/05/24 07:50:53;;;;;;;8.23;4.90;;;;;;;12.11;100.00;97209.22;5046148;28;20575;-69
2023/05/24 07:53:22;;;;;;;10.30;4.97;;;;;;;12.24;100.00;97221.78;5039109;28;20661;-68
2023/05/24 07:55:50;;;;;;;7.13;4.40;;;;;;;12.00;100.00;97207.91;5043422;28;20384;-68
2023/05/24 07:58:18;;;;;;;9.13;4.87;;;;;;;12.05;100.00;97212.66;5028371;28;20217;-67
2023/05/24 08:00:46;;;;;;;7.53;4.80;;;;;;;12.16;100.00;97212.13;5047732;28;20214;-66
2023/05/24 08:03:16;;;;;;;6.63;4.80;;;;;;;12.25;100.00;97214.63;5013094;28;20325;-68
2023/05/24 08:05:44;;;;;;;4.80;4.30;;;;;;;12.27;100.00;97212.59;5041804;28;20206;-66
2023/05/24 08:08:12;;;;;;;7.00;4.60;;;;;;;12.41;100.00;97217.00;5022785;28;20559;-69
2023/05/24 08:10:40;;;;;;;9.87;4.87;;;;;;;12.62;100.00;97209.94;5044213;28;20237;-69
2023/05/24 08:13:08;;;;;;;10.30;4.50;;;;;;;12.75;100.00;97214.50;5025172;28;20938;-67
2023/05/24 08:15:36;;;;;;;9.67;5.27;;;;;;;12.78;100.00;97215.97;5048860;28;20660;-67
2023/05/24 08:18:04;;;;;;;10.63;5.43;;;;;;;12.78;100.00;97197.34;5041616;28;21103;-71
2023/05/24 08:20:34;;;;;;;9.57;5.17;;;;;;;13.03;100.00;97216.28;5007683;28;20397;-67
2023/05/24 08:23:03;;;;;;;6.37;5.33;;;;;;;13.35;100.00;97210.44;5051905;28;20405;-68
2023/05/24 08:25:31;;;;;;;9.63;4.57;;;;;;;13.39;100.00;97217.81;5023275;28;20347;-67
2023/05/24 08:27:59;;;;;;;6.17;4.37;;;;;;;13.46;100.00;97220.53;5028145;28;20230;-67
2023/05/24 08:30:27;;;;;;;9.10;4.90;;;;;;;13.92;100.00;97228.78;5045312;28;20553;-67
2023/05/24 08:32:56;;;;;;;8.37;5.33;;;;;;;13.92;96.94;97220.78;5053795;28;20229;-68
2023/05/24 08:35:24;;;;;;;5.27;4.63;;;;;;;14.01;96.35;97217.69;4985346;28;20352;-67
2023/05/24 08:37:53;;;;;;;7.53;5.37;;;;;;;13.61;95.37;97220.31;5045695;28;20218;-66
2023/05/24 08:40:22;;;;;;;5.63;4.80;;;;;;;13.20;99.27;97224.72;5021656;28;20418;-68
2023/05/24 08:42:50;;;;;;;5.40;4.77;;;;;;;12.90;100.00;97226.88;5049898;28;20234;-67
2023/05/24 08:45:19;;;;;;;7.53;5.00;;;;;;;12.81;100.00;97229.66;5024773;28;20206;-68
2023/05/24 08:47:47;;;;;;;6.60;4.90;;;;;;;12.91;100.00;97231.16;5049622;28;20283;-67
2023/05/24 08:50:15;;;;;;;6.73;4.83;;;;;;;12.96;100.00;97234.84;4993548;28;20756;-68
2023/05/24 08:52:44;;;;;;;6.10;4.20;;;;;;;12.90;100.00;97233.00;5048825;28;20328;-68
2023/05/24 08:55:13;;;;;;;5.03;4.17;;;;;;;13.00;100.00;97233.44;5028975;28;20279;-69
2023/05/24 08:57:41;;;;;;;7.67;5.60;;;;;;;13.18;100.00;97248.03;5043802;28;20197;-66
2023/05/24 09:00:11;;;;;;;9.30;5.40;;;;;;;13.33;100.00;97242.56;5026747;28;20585;-68
2023/05/24 09:02:41;;;;;;;9.93;5.33;;;;;;;13.53;100.00;97240.00;5048960;28;20223;-68
2023/05/24 09:05:13;;;;;;;6.80;4.70;;;;;;;13.86;100.00;97243.72;5024518;28;20625;-68
2023/05/24 09:07:42;;;;;;;5.83;4.60;;;;;;;13.76;98.22;97236.13;5029244;28;21097;-68
2023/05/24 09:10:11;;;;;;;8.70;4.80;;;;;;;13.71;99.75;97234.09;5037207;28;20213;-69
2023/05/24 09:12:44;;;;;;;5.70;5.07;;;;;;;13.68;95.72;97239.81;5034058;28;21054;-68
2023/05/24 09:15:12;;;;;;;5.03;4.50;;;;;;;13.39;97.51;97236.44;5020376;28;20249;-67
2023/05/24 09:17:40;;;;;;;7.77;4.93;;;;;;;13.30;100.00;97240.31;5052995;28;20280;-66
2023/05/24 09:20:09;;;;;;;9.63;5.37;;;;;;;13.52;99.72;97242.84;5043093;28;20305;-67
2023/05/24 09:22:38;;;;;;;7.60;4.53;;;;;;;13.64;100.00;97246.56;5010011;28;20316;-66
2023/05/24 09:25:09;;;;;;;7.50;4.37;;;;;;;13.88;97.03;97245.16;5046521;28;20209;-67
2023/05/24 09:27:37;;;;;;;9.03;4.60;;;;;;;14.05;96.74;97252.75;5028975;28;20222;-66
2023/05/24 09:30:11;;;;;;;7.13;4.73;;;;;;;13.97;90.50;97231.66;5048353;28;20276;-66
2023/05/24 09:32:39;;;;;;;7.53;4.87;;;;;;;14.12;94.20;97253.56;5042766;28;20222;-66
2023/05/24 09:35:09;;;;;;;5.77;4.53;;;;;;;14.10;96.20;97246.81;5044371;28;20205;-67
2023/05/24 09:37:39;;;;;;;8.40;4.70;;;;;;;14.13;94.94;97252.53;4999042;28;20675;-66
2023/05/24 09:40:11;;;;;;;6.57;4.47;;;;;;;13.87;92.45;97253.34;5053370;28;20206;-68
2023/05/24 09:42:38;;;;;;;8.57;5.20;;;;;;;13.58;96.71;97255.34;5026440;28;20831;-66
2023/05/24 09:45:09;;;;;;;5.73;4.73;;;;;;;13.38;98.46;97228.66;5050789;28;20206;-69
2023/05/24 09:47:38;;;;;;;8.23;5.30;;;;;;;14.02;99.96;97255.81;5045018;28;20226;-67
2023/05/24 09:50:12;;;;;;;5.50;5.00;;;;;;;14.23;92.99;97252.13;5053793;28;20210;-69
2023/05/24 09:52:40;;;;;;;5.57;4.40;;;;;;;14.04;91.97;97249.28;5004857;28;20751;-67
2023/05/24 09:55:12;;;;;;;5.80;5.17;;;;;;;14.35;89.59;97249.66;5053155;28;21039;-67
2023/05/24 09:57:40;;;;;;;5.70;4.60;;;;;;;14.14;90.15;97243.53;5029790;28;20297;-69
2023/05/24 10:00:16;;;;;;;6.23;4.50;;;;;;;14.17;90.86;97236.97;5034136;28;20690;-67
2023/05/24 10:02:44;;;;;;;7.70;4.20;;;;;;;14.10;91.64;97230.84;5026473;28;20255;-67
2023/05/24 10:05:20;;;;;;;9.50;4.87;;;;;;;14.50;94.09;97222.78;5044852;28;20206;-68
2023/05/24 10:07:48;;;;;;;6.07;4.60;;;;;;;15.13;94.03;97221.38;5054494;28;20288;-69
2023/05/24 10:10:16;;;;;;;5.40;4.90;;;;;;;14.90;88.43;97224.53;5007880;28;21051;-68
2023/05/24 10:12:45;;;;;;;9.03;4.90;;;;;;;14.47;91.33;97232.00;5054785;28;20287;-70
2023/05/24 10:15:15;;;;;;;5.43;4.67;;;;;;;14.87;89.74;97228.47;5032573;28;20221;-68
2023/05/24 10:17:43;;;;;;;5.27;4.30;;;;;;;15.22;89.53;97235.31;5029872;28;20208;-68
2023/05/24 10:20:12;;;;;;;4.40;4.00;;;;;;;15.25;84.24;97226.88;5050551;28;20272;-68
2023/05/24 10:22:42;;;;;;;5.30;4.10;;;;;;;15.67;83.95;97218.41;5053749;28;20258;-69
2023/05/24 10:25:13;;;;;;;5.33;4.27;;;;;;;15.81;81.11;97221.81;4994821;28;20502;-68
2023/05/24 10:27:41;;;;;;;7.53;5.30;;;;;;;15.48;80.39;97204.16;5052353;28;20654;-68
2023/05/24 10:30:14;;;;;;;4.83;4.33;;;;;;;15.72;79.84;97185.69;5034400;28;20217;-69
2023/05/24 10:32:44;;;;;;;5.97;4.53;;;;;;;16.19;80.04;97220.09;5029155;28;20681;-66
2023/05/24 10:35:13;;;;;;;6.73;4.13;;;;;;;16.24;73.79;97219.47;5045993;28;20215;-68
2023/05/24 10:37:41;;;;;;;5.87;4.27;;;;;;;16.16;73.21;97225.88;5053845;28;20206;-67
2023/05/24 10:40:18;;;;;;;3.80;3.40;;;;;;;15.88;77.73;97219.94;4997586;28;20218;-68
2023/05/24 10:42:47;;;;;;;6.07;4.30;;;;;;;16.28;73.71;97226.78;5051347;28;20222;-69
2023/05/24 10:45:32;;;;;;;6.43;4.40;;;;;;;15.55;79.21;97228.16;5034841;28;20239;-68
2023/05/24 10:48:09;;;;;;;6.33;4.23;;;;;;;15.39;78.71;97227.63;5053459;28;20205;-68
2023/05/24 10:50:36;;;;;;;6.10;3.93;;;;;;;15.46;76.20;97216.91;5041311;28;20214;-69
2023/05/24 10:53:14;;;;;;;5.80;4.30;;;;;;;15.48;76.31;97199.63;5051955;28;20330;-69
2023/05/24 10:55:53;;;;;;;9.00;4.57;;;;;;;15.46;75.57;97220.38;5000974;28;20215;-69
2023/05/24 10:58:22;;;;;;;6.23;4.13;;;;;;;15.45;75.04;97215.28;5052579;28;20537;-67
2023/05/24 11:00:52;;;;;;;6.70;4.57;;;;;;;15.47;74.21;97208.66;5053086;28;20199;-66
2023/05/24 11:03:23;;;;;;;8.80;4.10;;;;;;;15.48;72.76;97212.97;5006002;28;20226;-68
2023/05/24 11:05:53;;;;;;;6.60;3.60;;;;;;;15.49;70.91;97221.81;5054187;28;20346;-68
2023/05/24 11:08:23;;;;;;;5.03;3.93;;;;;;;15.47;69.19;97229.22;5046348;28;20226;-69
2023/05/24 11:10:51;;;;;;;3.87;3.27;;;;;;;15.47;71.80;97223.88;5000954;28;20329;-68
2023/05/24 11:13:20;;;;;;;4.97;3.33;;;;;;;15.57;69.66;97228.78;5035491;28;20334;-68
2023/05/24 11:15:51;;;;;;;6.63;4.47;;;;;;;15.69;65.62;97226.19;5051779;28;20202;-66
2023/05/24 11:18:23;;;;;;;5.07;3.30;;;;;;;15.59;69.50;97232.84;5032354;28;20795;-67
2023/05/24 11:20:51;;;;;;;5.97;3.70;;;;;;;15.61;67.46;97232.66;5027319;28;20218;-68
2023/05/24 11:23:19;;;;;;;3.83;3.50;;;;;;;15.56;69.07;97237.81;5041933;28;20765;-68
2023/05/24 11:25:47;;;;;;;6.07;4.60;;;;;;;15.74;66.20;97232.53;4998212;28;20214;-69
2023/05/24 11:28:15;;;;;;;6.20;4.53;;;;;;;15.96;65.07;97220.69;5051439;28;20708;-69
2023/05/24 11:30:44;;;;;;;7.33;4.40;;;;;;;15.85;67.23;97214.16;5049449;28;20693;-67
2023/05/24 11:33:17;;;;;;;4.53;3.57;;;;;;;15.59;64.98;97216.00;5023472;28;20245;-67
2023/05/24 11:35:46;;;;;;;3.73;3.30;;;;;;;15.42;65.41;97205.84;5031285;28;20206;-69